Terminal Aerodrome Forecast
Issued by NWS Tulsa, OK

Home | Current Version | Previous Version | Text Only | Print | Product List | Glossary On
Versions: 1 2 3 4 5 6 7 8 9 10 11 12
765
FTUS44 KTSA 111720
TAFFSM
TAF
KFSM 111720Z 1118/1218 27007KT P6SM FEW250
     FM112000 29010G20KT P6SM SCT250
     FM120000 31012KT P6SM FEW250=

USA.gov is the U.S. government's official web portal to all federal, state and local government web resources and services.